createdAt,value
2022-10-12T00:01:54.506Z,2.30
2022-10-12T00:04:21.264Z,2.33
2022-10-12T00:06:48.076Z,2.47
2022-10-12T00:09:14.905Z,2.10
2022-10-12T00:11:42.396Z,2.50
2022-10-12T00:14:09.295Z,2.20
2022-10-12T00:16:36.923Z,2.20
2022-10-12T00:19:04.800Z,2.10
2022-10-12T00:21:31.809Z,2.53
2022-10-12T00:24:00.864Z,2.10
2022-10-12T00:26:29.225Z,2.30
2022-10-12T00:28:58.407Z,2.30
2022-10-12T00:31:26.116Z,2.33
2022-10-12T00:33:53.327Z,1.80
2022-10-12T00:36:23.490Z,1.93
2022-10-12T00:38:52.164Z,2.40
2022-10-12T00:41:23.791Z,2.10
2022-10-12T00:43:57.615Z,1.90
2022-10-12T00:46:39.361Z,2.40
2022-10-12T00:49:12.449Z,2.13
2022-10-12T00:51:41.891Z,2.30
2022-10-12T00:54:14.379Z,2.40
2022-10-12T00:56:44.149Z,2.63
2022-10-12T00:59:23.017Z,2.03
2022-10-12T01:01:50.867Z,2.23
2022-10-12T01:04:17.893Z,1.97
2022-10-12T01:06:47.366Z,1.90
2022-10-12T01:09:14.833Z,1.93
2022-10-12T01:11:43.743Z,2.20
2022-10-12T01:14:10.853Z,2.40
2022-10-12T01:16:57.231Z,2.33
2022-10-12T01:19:42.770Z,3.00
2022-10-12T01:22:17.933Z,2.60
2022-10-12T01:24:47.576Z,2.57
2022-10-12T01:27:48.327Z,2.63
2022-10-12T01:30:18.441Z,2.70
2022-10-12T01:33:14.323Z,2.30
2022-10-12T01:35:54.115Z,2.40
2022-10-12T01:38:53.762Z,2.50
2022-10-12T01:41:26.962Z,2.73
2022-10-12T01:43:55.140Z,3.10
2022-10-12T01:46:21.703Z,2.17
2022-10-12T01:48:54.858Z,2.47
2022-10-12T01:51:36.313Z,2.40
2022-10-12T01:54:15.705Z,2.53
2022-10-12T01:57:30.509Z,2.73
2022-10-12T02:00:08.084Z,2.40
2022-10-12T02:02:34.715Z,2.73
2022-10-12T02:05:18.950Z,2.57
2022-10-12T02:07:52.319Z,2.73
2022-10-12T02:10:27.793Z,3.00
2022-10-12T02:12:57.331Z,2.87
2022-10-12T02:15:27.057Z,3.10
2022-10-12T02:17:53.927Z,2.93
2022-10-12T02:20:24.305Z,2.77
2022-10-12T02:22:52.450Z,3.20
2022-10-12T02:25:23.750Z,3.53
2022-10-12T02:27:59.238Z,3.50
2022-10-12T02:30:26.606Z,3.23
2022-10-12T02:33:06.464Z,3.43
2022-10-12T02:35:39.942Z,2.93
2022-10-12T02:38:16.307Z,3.07
2022-10-12T02:40:58.514Z,3.50
2022-10-12T02:43:35.074Z,4.00
2022-10-12T02:46:04.613Z,3.87
2022-10-12T02:48:32.189Z,3.57
2022-10-12T02:51:00.904Z,4.00
2022-10-12T02:53:30.466Z,3.87
2022-10-12T02:56:03.256Z,3.83
2022-10-12T02:58:30.153Z,4.00
2022-10-12T03:00:56.925Z,4.43
2022-10-12T03:03:23.871Z,4.57
2022-10-12T03:05:50.804Z,5.50
2022-10-12T03:08:17.510Z,4.50
2022-10-12T03:10:44.218Z,3.93
2022-10-12T03:13:11.032Z,4.37
2022-10-12T03:15:37.887Z,4.90
2022-10-12T03:18:05.064Z,4.00
2022-10-12T03:20:31.990Z,3.93
2022-10-12T03:22:58.691Z,4.20
2022-10-12T03:25:26.470Z,4.30
2022-10-12T03:27:53.322Z,4.27
2022-10-12T03:30:20.005Z,3.93
2022-10-12T03:32:46.681Z,4.63
2022-10-12T03:35:13.702Z,3.80
2022-10-12T03:37:40.841Z,4.43
2022-10-12T03:40:08.633Z,4.63
2022-10-12T03:42:35.397Z,3.70
2022-10-12T03:45:02.100Z,3.97
2022-10-12T03:47:28.795Z,3.70
2022-10-12T03:49:55.628Z,4.47
2022-10-12T03:52:22.635Z,4.20
2022-10-12T03:54:49.356Z,4.27
2022-10-12T03:57:16.112Z,4.23
2022-10-12T03:59:43.312Z,4.47
2022-10-12T04:02:14.362Z,4.23
2022-10-12T04:04:43.291Z,4.60
2022-10-12T04:07:10.115Z,5.10
2022-10-12T04:09:37.175Z,4.40
2022-10-12T04:12:04.158Z,4.57
2022-10-12T04:14:31.000Z,5.63
2022-10-12T04:16:57.917Z,5.17
2022-10-12T04:19:24.595Z,5.03
2022-10-12T04:21:51.352Z,5.07
2022-10-12T04:24:18.157Z,5.60
2022-10-12T04:26:44.896Z,5.37
2022-10-12T04:29:13.920Z,5.47
2022-10-12T04:31:41.297Z,5.40
2022-10-12T04:34:09.805Z,5.40
2022-10-12T04:36:36.489Z,6.10
2022-10-12T04:39:03.349Z,6.30
2022-10-12T04:41:30.220Z,6.70
2022-10-12T04:43:57.092Z,6.50
2022-10-12T04:46:23.831Z,5.83
2022-10-12T04:48:50.681Z,5.87
2022-10-12T04:51:17.397Z,6.27
2022-10-12T04:53:43.994Z,6.63
2022-10-12T04:56:14.757Z,6.70
2022-10-12T04:58:41.571Z,6.50
2022-10-12T05:01:08.280Z,7.87
2022-10-12T05:03:39.480Z,7.57
2022-10-12T05:06:08.445Z,6.47
2022-10-12T05:08:35.299Z,6.53
2022-10-12T05:11:02.081Z,6.60
2022-10-12T05:13:28.944Z,6.70
2022-10-12T05:15:55.741Z,6.40
2022-10-12T05:18:22.431Z,7.10
2022-10-12T05:20:52.184Z,7.20
2022-10-12T05:23:21.296Z,6.77
2022-10-12T05:25:48.053Z,7.13
2022-10-12T05:28:14.788Z,7.40
2022-10-12T05:30:41.585Z,6.43
2022-10-12T05:33:08.525Z,7.40
2022-10-12T05:35:35.347Z,7.43
2022-10-12T05:38:02.033Z,7.97
2022-10-12T05:40:29.696Z,8.40
2022-10-12T05:42:58.561Z,8.30
2022-10-12T05:45:27.873Z,8.47
2022-10-12T05:47:54.586Z,7.33
2022-10-12T05:50:21.507Z,7.40
2022-10-12T05:52:48.571Z,7.17
2022-10-12T05:55:15.375Z,7.27
2022-10-12T05:57:42.169Z,6.93
2022-10-12T06:00:09.484Z,7.50
2022-10-12T06:02:37.342Z,7.13
2022-10-12T06:05:04.722Z,6.70
2022-10-12T06:07:31.563Z,8.50
2022-10-12T06:09:58.260Z,9.00
2022-10-12T06:12:24.935Z,8.83
2022-10-12T06:14:52.563Z,8.83
2022-10-12T06:17:19.285Z,9.23
2022-10-12T06:19:46.157Z,8.20
2022-10-12T06:22:12.828Z,8.87
2022-10-12T06:24:39.482Z,9.23
2022-10-12T06:27:06.178Z,9.23
2022-10-12T06:29:33.123Z,9.07
2022-10-12T06:31:59.852Z,9.53
2022-10-12T06:34:26.639Z,8.40
2022-10-12T06:36:54.175Z,7.80
2022-10-12T06:39:25.603Z,7.23
2022-10-12T06:41:54.471Z,7.73
2022-10-12T06:44:22.575Z,8.13
2022-10-12T06:46:50.453Z,8.03
2022-10-12T06:49:17.779Z,7.60
2022-10-12T06:51:44.573Z,8.50
2022-10-12T06:54:11.349Z,8.47
2022-10-12T06:56:39.616Z,8.33
2022-10-12T06:59:06.828Z,8.70
2022-10-12T07:01:33.870Z,8.43
2022-10-12T07:04:01.092Z,8.33
2022-10-12T07:06:28.245Z,7.83
2022-10-12T07:08:55.634Z,8.43
2022-10-12T07:11:23.111Z,8.17
2022-10-12T07:13:50.131Z,7.77
2022-10-12T07:16:16.938Z,8.27
2022-10-12T07:18:43.711Z,7.40
2022-10-12T07:21:10.606Z,7.73
2022-10-12T07:23:41.323Z,7.90
2022-10-12T07:26:11.912Z,6.93
2022-10-12T07:28:38.840Z,7.10
2022-10-12T07:31:07.994Z,7.30
2022-10-12T07:33:35.441Z,6.63
2022-10-12T07:36:13.929Z,6.53
2022-10-12T07:38:45.307Z,6.50
2022-10-12T07:41:12.870Z,6.37
2022-10-12T07:43:39.524Z,6.10
2022-10-12T07:46:06.719Z,6.10
2022-10-12T07:48:34.302Z,6.83
2022-10-12T07:51:09.082Z,5.70
2022-10-12T07:53:37.822Z,5.93
2022-10-12T07:56:07.653Z,6.00
2022-10-12T07:58:34.412Z,5.40
2022-10-12T08:01:06.385Z,5.63
2022-10-12T08:03:33.209Z,5.87
2022-10-12T08:06:00.167Z,5.43
2022-10-12T08:08:26.912Z,5.93
2022-10-12T08:10:53.613Z,5.80
2022-10-12T08:13:20.321Z,5.20
2022-10-12T08:15:50.734Z,6.90
2022-10-12T08:18:17.810Z,5.50
2022-10-12T08:20:44.531Z,5.27
2022-10-12T08:23:11.265Z,4.97
2022-10-12T08:25:38.203Z,5.43
2022-10-12T08:28:05.471Z,4.70
2022-10-12T08:30:33.890Z,5.30
2022-10-12T08:33:00.715Z,5.00
2022-10-12T08:35:27.407Z,4.97
2022-10-12T08:37:54.439Z,4.67
2022-10-12T08:40:33.183Z,4.20
2022-10-12T08:43:11.229Z,4.30
2022-10-12T08:45:48.301Z,4.87
2022-10-12T08:48:23.180Z,5.27
2022-10-12T08:50:54.750Z,4.27
2022-10-12T08:53:36.087Z,4.97
2022-10-12T08:56:02.919Z,3.60
2022-10-12T08:58:37.360Z,3.60
2022-10-12T09:01:25.746Z,4.73
2022-10-12T09:04:33.292Z,5.33
2022-10-12T09:07:33.883Z,3.87
2022-10-12T09:10:31.817Z,3.50
2022-10-12T09:13:22.456Z,3.93
2022-10-12T09:16:00.636Z,3.77
2022-10-12T09:18:41.004Z,3.63
2022-10-12T09:21:14.027Z,3.70
2022-10-12T09:23:42.693Z,3.40
2022-10-12T09:26:36.885Z,3.53
2022-10-12T09:29:33.193Z,3.70
2022-10-12T09:32:13.188Z,4.37
2022-10-12T09:34:40.317Z,3.17
2022-10-12T09:37:12.463Z,3.87
2022-10-12T09:39:40.792Z,3.70
2022-10-12T09:42:09.695Z,3.17
2022-10-12T09:44:47.138Z,3.40
2022-10-12T09:47:33.307Z,3.60
2022-10-12T09:50:08.955Z,2.90
2022-10-12T09:52:35.523Z,3.50
2022-10-12T09:57:59.302Z,3.90
2022-10-12T10:00:26.269Z,3.40
2022-10-12T10:02:54.281Z,2.90
2022-10-12T10:05:25.882Z,3.67
2022-10-12T10:07:53.090Z,2.90
2022-10-12T10:10:29.455Z,3.43
2022-10-12T10:13:01.086Z,3.30
2022-10-12T10:15:38.744Z,3.00
2022-10-12T10:18:19.850Z,3.17
2022-10-12T10:21:00.775Z,3.00
2022-10-12T10:23:33.384Z,3.07
2022-10-12T10:26:07.104Z,3.00
2022-10-12T10:28:36.401Z,3.20
2022-10-12T10:31:17.125Z,2.57
2022-10-12T10:33:44.272Z,2.60
2022-10-12T10:36:22.339Z,3.40
2022-10-12T10:39:05.541Z,2.23
2022-10-12T10:41:37.593Z,2.50
2022-10-12T10:44:06.501Z,2.57
2022-10-12T10:46:36.292Z,2.97
2022-10-12T10:49:07.443Z,2.77
2022-10-12T10:51:49.340Z,3.07
2022-10-12T10:54:22.127Z,2.60
2022-10-12T10:56:56.696Z,2.50
2022-10-12T10:59:51.775Z,2.50
2022-10-12T11:02:52.219Z,3.57
2022-10-12T11:05:27.337Z,3.20
2022-10-12T11:07:57.240Z,2.53
2022-10-12T11:10:35.541Z,2.47
2022-10-12T11:13:12.500Z,3.50
2022-10-12T11:15:48.564Z,2.20
2022-10-12T11:18:41.495Z,2.43
2022-10-12T11:21:13.358Z,2.27
2022-10-12T11:23:52.065Z,2.83
2022-10-12T11:26:39.104Z,2.60
2022-10-12T11:29:06.863Z,2.80
2022-10-12T11:31:39.814Z,2.40
2022-10-12T11:34:13.653Z,1.90
2022-10-12T11:37:01.050Z,2.40
2022-10-12T11:39:42.685Z,2.70
2022-10-12T11:42:21.952Z,2.20
2022-10-12T11:44:50.226Z,2.20
2022-10-12T11:47:36.154Z,2.67
2022-10-12T11:50:35.382Z,2.77
2022-10-12T11:53:06.269Z,2.60
2022-10-12T11:55:46.363Z,2.30
2022-10-12T11:58:56.346Z,2.40
2022-10-12T12:01:44.347Z,2.23
2022-10-12T12:04:42.761Z,2.37
2022-10-12T12:07:43.363Z,2.00
2022-10-12T12:10:25.310Z,2.57
2022-10-12T12:13:11.650Z,2.30
2022-10-12T12:15:43.690Z,2.20
2022-10-12T12:18:26.617Z,2.40
2022-10-12T12:21:05.768Z,2.13
2022-10-12T12:23:53.309Z,2.03
2022-10-12T12:26:29.659Z,2.23
2022-10-12T12:29:15.583Z,2.40
2022-10-12T12:31:43.216Z,1.93
2022-10-12T12:34:17.465Z,1.90
2022-10-12T12:36:46.674Z,2.27
2022-10-12T12:39:32.582Z,1.87
2022-10-12T12:42:04.971Z,2.37
2022-10-12T12:44:35.362Z,2.07
2022-10-12T12:47:01.956Z,1.97
2022-10-12T12:49:37.517Z,2.10
2022-10-12T12:52:10.905Z,2.20
2022-10-12T12:54:55.617Z,1.90
2022-10-12T12:57:40.910Z,2.20
2022-10-12T13:00:33.247Z,1.80
2022-10-12T13:03:28.553Z,2.40
2022-10-12T13:06:01.224Z,2.00
2022-10-12T13:08:46.501Z,2.07
2022-10-12T13:11:38.019Z,2.20
2022-10-12T13:14:35.598Z,2.10
2022-10-12T13:17:39.871Z,2.00
2022-10-12T13:20:22.753Z,2.10
2022-10-12T13:22:52.820Z,2.03
2022-10-12T13:25:33.186Z,2.20
2022-10-12T13:28:04.273Z,2.10
2022-10-12T13:30:31.024Z,2.57
2022-10-12T13:33:18.705Z,2.03
2022-10-12T13:35:51.516Z,2.10
2022-10-12T13:38:22.706Z,2.00
2022-10-12T13:41:08.302Z,1.83
2022-10-12T13:43:53.220Z,1.90
2022-10-12T13:46:43.557Z,1.97
2022-10-12T13:49:16.423Z,2.40
2022-10-12T13:51:45.280Z,3.07
2022-10-12T13:54:38.521Z,1.83
2022-10-12T13:57:34.192Z,2.10
2022-10-12T14:00:08.376Z,1.93
2022-10-12T14:02:35.346Z,4.27
2022-10-12T14:05:05.230Z,2.50
2022-10-12T14:07:35.809Z,1.80
2022-10-12T14:10:12.383Z,1.73
2022-10-12T14:12:40.269Z,3.10
2022-10-12T14:15:07.996Z,2.20
2022-10-12T14:17:44.600Z,2.10
2022-10-12T14:20:35.847Z,1.80
2022-10-12T14:23:10.656Z,1.90
2022-10-12T14:25:38.345Z,2.00
2022-10-12T14:28:06.998Z,2.20
2022-10-12T14:30:39.678Z,1.93
2022-10-12T14:33:32.691Z,2.10
2022-10-12T14:36:13.232Z,1.97
2022-10-12T14:38:46.269Z,1.73
2022-10-12T14:41:33.606Z,2.40
2022-10-12T14:44:16.111Z,2.20
2022-10-12T14:46:52.707Z,2.13
2022-10-12T14:49:25.333Z,2.27
2022-10-12T14:51:54.235Z,2.30
2022-10-12T14:54:21.262Z,4.30
2022-10-12T14:56:50.169Z,2.63
2022-10-12T14:59:16.944Z,2.20
2022-10-12T15:01:47.405Z,2.10
2022-10-12T15:04:17.018Z,2.50
2022-10-12T15:06:48.279Z,2.00
2022-10-12T15:09:17.342Z,2.20
2022-10-12T15:11:44.021Z,4.53
2022-10-12T15:14:11.882Z,2.60
2022-10-12T15:16:39.323Z,3.00
2022-10-12T15:19:06.003Z,2.37
2022-10-12T15:21:32.773Z,2.40
2022-10-12T15:23:59.398Z,1.83
2022-10-12T15:26:26.966Z,2.07
2022-10-12T15:28:53.782Z,2.03
2022-10-12T15:31:20.558Z,2.20
2022-10-12T15:33:47.290Z,2.50
2022-10-12T15:36:14.060Z,2.40
2022-10-12T15:38:40.879Z,7.70
2022-10-12T15:41:17.288Z,5.27
2022-10-12T15:43:43.988Z,3.20
2022-10-12T15:46:13.875Z,2.27
2022-10-12T15:48:40.700Z,2.07
2022-10-12T15:51:16.695Z,2.13
2022-10-12T15:53:45.453Z,1.90
2022-10-12T15:56:14.508Z,1.90
2022-10-12T15:58:41.680Z,2.13
2022-10-12T16:01:12.959Z,2.27
2022-10-12T16:03:40.036Z,2.57
2022-10-12T16:06:07.427Z,1.97
2022-10-12T16:08:34.578Z,1.80
2022-10-12T16:11:06.375Z,2.10
2022-10-12T16:13:33.652Z,2.43
2022-10-12T16:16:00.570Z,2.00
2022-10-12T16:18:27.338Z,2.20
2022-10-12T16:20:54.246Z,2.03
2022-10-12T16:23:24.850Z,1.80
2022-10-12T16:25:51.691Z,2.57
2022-10-12T16:28:18.756Z,2.10
2022-10-12T16:30:45.460Z,1.70
2022-10-12T16:33:12.112Z,2.10
2022-10-12T16:35:40.056Z,2.10
2022-10-12T16:38:06.825Z,2.50
2022-10-12T16:40:33.622Z,2.30
2022-10-12T16:43:00.389Z,1.83
2022-10-12T16:45:27.257Z,2.50
2022-10-12T16:47:54.114Z,2.13
2022-10-12T16:50:23.462Z,2.43
2022-10-12T16:52:50.646Z,2.20
2022-10-12T16:55:18.124Z,1.90
2022-10-12T16:57:45.214Z,2.20
2022-10-12T17:00:17.125Z,2.37
2022-10-12T17:02:43.802Z,2.70
2022-10-12T17:05:10.561Z,2.60
2022-10-12T17:07:37.318Z,2.43
2022-10-12T17:10:04.594Z,2.40
2022-10-12T17:12:32.524Z,2.50
2022-10-12T17:14:59.287Z,2.30
2022-10-12T17:17:26.289Z,2.00
2022-10-12T17:19:53.129Z,2.70
2022-10-12T17:22:19.911Z,2.17
2022-10-12T17:24:46.735Z,2.50
2022-10-12T17:27:14.503Z,2.90
2022-10-12T17:29:41.580Z,3.10
2022-10-12T17:32:13.015Z,3.13
2022-10-12T17:34:42.774Z,2.97
2022-10-12T17:37:13.767Z,2.90
2022-10-12T17:39:43.536Z,2.70
2022-10-12T17:42:10.996Z,2.90
2022-10-12T17:44:38.094Z,2.50
2022-10-12T17:47:04.927Z,2.90
2022-10-12T17:49:31.710Z,3.30
2022-10-12T17:51:58.465Z,3.43
2022-10-12T17:54:26.755Z,3.07
2022-10-12T17:56:57.325Z,2.77
2022-10-12T17:59:24.753Z,3.50
2022-10-12T18:01:52.602Z,3.20
2022-10-12T18:04:20.382Z,2.73
2022-10-12T18:06:47.085Z,3.00
2022-10-12T18:09:14.552Z,2.60
2022-10-12T18:11:41.444Z,3.07
2022-10-12T18:14:09.734Z,3.43
2022-10-12T18:16:37.192Z,7.17
2022-10-12T18:19:07.593Z,8.73
2022-10-12T18:21:35.455Z,7.13
2022-10-12T18:24:05.747Z,5.93
2022-10-12T18:26:33.677Z,4.47
2022-10-12T18:29:01.810Z,6.23
2022-10-12T18:31:30.037Z,10.23
2022-10-12T18:33:57.338Z,11.20
2022-10-12T18:36:25.082Z,7.80
2022-10-12T18:38:52.000Z,4.60
2022-10-12T18:41:22.536Z,7.47
2022-10-12T18:43:55.317Z,6.77
2022-10-12T18:46:22.195Z,3.23
2022-10-12T18:48:48.993Z,4.13
2022-10-12T18:51:26.883Z,8.03
2022-10-12T18:53:54.227Z,21.77
2022-10-12T18:56:22.185Z,10.87
2022-10-12T18:58:49.431Z,8.17
2022-10-12T19:01:21.424Z,6.70
2022-10-12T19:03:48.686Z,4.37
2022-10-12T19:06:21.077Z,2.60
2022-10-12T19:08:48.647Z,3.23
2022-10-12T19:11:17.775Z,2.97
2022-10-12T19:13:53.267Z,3.07
2022-10-12T19:16:20.593Z,2.83
2022-10-12T19:18:47.569Z,2.63
2022-10-12T19:21:17.146Z,3.00
2022-10-12T19:23:45.696Z,2.77
2022-10-12T19:26:15.531Z,3.67
2022-10-12T19:28:42.783Z,2.73
2022-10-12T19:31:12.938Z,2.93
2022-10-12T19:33:40.054Z,3.23
2022-10-12T19:36:09.175Z,3.00
2022-10-12T19:38:38.373Z,3.37
2022-10-12T19:41:05.982Z,2.87
2022-10-12T19:43:35.719Z,3.10
2022-10-12T19:46:10.653Z,3.33
2022-10-12T19:48:38.524Z,2.90
2022-10-12T19:51:08.107Z,2.80
2022-10-12T19:53:34.717Z,3.30
2022-10-12T19:56:04.357Z,3.40
2022-10-12T19:58:31.370Z,4.30
2022-10-12T20:01:07.650Z,3.30
2022-10-12T20:03:35.538Z,5.10
2022-10-12T20:06:06.374Z,16.93
2022-10-12T20:08:33.399Z,10.90
2022-10-12T20:11:00.178Z,7.83
2022-10-12T20:13:26.930Z,4.70
2022-10-12T20:15:55.041Z,3.20
2022-10-12T20:18:22.513Z,3.13
2022-10-12T20:20:49.631Z,2.83
2022-10-12T20:23:17.514Z,3.37
2022-10-12T20:25:46.782Z,3.30
2022-10-12T20:28:14.279Z,2.83
2022-10-12T20:30:41.658Z,3.47
2022-10-12T20:33:11.947Z,3.57
2022-10-12T20:35:45.739Z,3.87
2022-10-12T20:38:12.380Z,3.07
2022-10-12T20:40:40.126Z,3.33
2022-10-12T20:43:06.842Z,3.03
2022-10-12T20:45:37.709Z,3.37
2022-10-12T20:48:05.103Z,3.20
2022-10-12T20:50:31.838Z,3.50
2022-10-12T20:52:58.627Z,3.90
2022-10-12T20:55:25.966Z,3.40
2022-10-12T20:57:52.599Z,4.10
2022-10-12T21:00:19.450Z,3.50
2022-10-12T21:02:46.049Z,3.87
2022-10-12T21:05:12.731Z,3.07
2022-10-12T21:07:39.387Z,3.73
2022-10-12T21:10:06.833Z,3.60
2022-10-12T21:12:33.603Z,3.73
2022-10-12T21:15:00.329Z,3.30
2022-10-12T21:17:27.012Z,3.10
2022-10-12T21:19:53.749Z,3.53
2022-10-12T21:22:20.839Z,2.73
2022-10-12T21:24:47.678Z,3.57
2022-10-12T21:27:14.434Z,3.37
2022-10-12T21:29:41.078Z,2.80
2022-10-12T21:32:07.883Z,3.37
2022-10-12T21:34:34.541Z,3.70
2022-10-12T21:37:01.470Z,3.07
2022-10-12T21:39:28.196Z,3.50
2022-10-12T21:41:54.870Z,2.93
2022-10-12T21:44:21.496Z,3.33
2022-10-12T21:46:48.160Z,3.10
2022-10-12T21:49:14.824Z,3.13
2022-10-12T21:51:41.543Z,3.70
2022-10-12T21:54:08.626Z,4.23
2022-10-12T21:56:36.409Z,3.47
2022-10-12T21:59:04.709Z,3.77
2022-10-12T22:01:37.414Z,3.90
2022-10-12T22:04:07.676Z,3.73
2022-10-12T22:06:34.864Z,4.20
2022-10-12T22:09:05.921Z,3.50
2022-10-12T22:11:34.462Z,3.50
2022-10-12T22:14:05.127Z,3.40
2022-10-12T22:16:32.226Z,3.77
2022-10-12T22:19:00.910Z,3.70
2022-10-12T22:21:28.238Z,3.93
2022-10-12T22:23:54.858Z,4.33
2022-10-12T22:26:23.150Z,3.90
2022-10-12T22:28:49.967Z,3.53
2022-10-12T22:31:19.055Z,3.57
2022-10-12T22:33:45.822Z,3.67
2022-10-12T22:36:13.827Z,3.70
2022-10-12T22:38:41.323Z,3.43
2022-10-12T22:41:12.379Z,3.90
2022-10-12T22:43:40.680Z,3.23
2022-10-12T22:46:08.084Z,3.03
2022-10-12T22:48:36.275Z,3.23
2022-10-12T22:51:04.170Z,3.37
2022-10-12T22:53:30.875Z,3.50
2022-10-12T22:56:07.062Z,3.57
2022-10-12T22:58:34.785Z,3.40
2022-10-12T23:01:10.979Z,3.57
2022-10-12T23:03:38.566Z,3.80
2022-10-12T23:06:06.997Z,3.93
2022-10-12T23:08:34.545Z,3.67
2022-10-12T23:11:07.764Z,3.37
2022-10-12T23:13:35.010Z,4.27
2022-10-12T23:16:07.564Z,3.83
2022-10-12T23:18:34.742Z,3.70
2022-10-12T23:21:06.285Z,3.53
2022-10-12T23:23:34.923Z,4.23
2022-10-12T23:26:03.768Z,4.60
2022-10-12T23:28:30.821Z,3.80
2022-10-12T23:30:57.754Z,3.97
2022-10-12T23:33:24.498Z,3.97
2022-10-12T23:35:58.953Z,4.00
2022-10-12T23:38:28.086Z,3.80
2022-10-12T23:40:54.933Z,3.20
2022-10-12T23:43:22.006Z,4.13
2022-10-12T23:45:48.794Z,3.60
2022-10-12T23:48:16.069Z,3.50
2022-10-12T23:50:42.960Z,4.33
2022-10-12T23:53:10.199Z,3.70
2022-10-12T23:55:36.915Z,3.87
2022-10-12T23:58:04.178Z,2.97
